createdAt,value
2022-11-04T00:01:51.403Z,12.86
2022-11-04T00:04:19.978Z,12.77
2022-11-04T00:06:46.884Z,12.63
2022-11-04T00:09:17.600Z,12.82
2022-11-04T00:12:02.862Z,12.73
2022-11-04T00:14:30.408Z,12.77
2022-11-04T00:17:16.518Z,12.73
2022-11-04T00:20:01.408Z,12.75
2022-11-04T00:22:46.775Z,12.86
2022-11-04T00:25:32.741Z,12.67
2022-11-04T00:28:31.675Z,12.87
2022-11-04T00:31:19.537Z,12.80
2022-11-04T00:33:47.410Z,12.86
2022-11-04T00:36:13.758Z,12.74
2022-11-04T00:38:40.305Z,12.80
2022-11-04T00:41:25.824Z,12.82
2022-11-04T00:43:53.421Z,12.63
2022-11-04T00:46:20.287Z,12.70
2022-11-04T00:48:46.809Z,12.62
2022-11-04T00:53:45.299Z,12.45
2022-11-04T00:56:11.646Z,12.70
2022-11-04T00:58:38.010Z,12.65
2022-11-04T01:01:11.675Z,12.40
2022-11-04T01:03:38.523Z,12.34
2022-11-04T01:06:05.619Z,12.42
2022-11-04T01:08:34.108Z,12.32
2022-11-04T01:11:08.902Z,12.62
2022-11-04T01:13:37.327Z,12.51
2022-11-04T01:16:07.096Z,12.33
2022-11-04T01:18:34.029Z,12.35
2022-11-04T01:21:01.915Z,12.32
2022-11-04T01:23:28.991Z,12.46
2022-11-04T01:25:55.416Z,12.21
2022-11-04T01:28:21.878Z,12.36
2022-11-04T01:30:48.271Z,12.14
2022-11-04T01:33:14.650Z,12.07
2022-11-04T01:35:41.059Z,12.05
2022-11-04T01:38:07.616Z,12.03
2022-11-04T01:40:41.332Z,11.99
2022-11-04T01:43:20.326Z,11.97
2022-11-04T01:45:52.051Z,11.93
2022-11-04T01:48:32.587Z,12.10
2022-11-04T01:50:59.960Z,12.14
2022-11-04T01:53:39.811Z,11.95
2022-11-04T01:56:12.025Z,11.85
2022-11-04T01:58:51.196Z,11.88
2022-11-04T02:01:18.342Z,11.83
2022-11-04T02:03:51.047Z,11.78
2022-11-04T02:06:19.608Z,11.66
2022-11-04T02:08:47.195Z,11.72
2022-11-04T02:11:33.813Z,11.62
2022-11-04T02:14:00.965Z,11.54
2022-11-04T02:16:39.911Z,11.85
2022-11-04T02:19:21.688Z,11.67
2022-11-04T02:22:17.352Z,11.64
2022-11-04T02:25:11.919Z,11.52
2022-11-04T02:28:09.302Z,11.47
2022-11-04T02:30:50.307Z,11.49
2022-11-04T02:33:26.597Z,11.46
2022-11-04T02:36:06.057Z,11.35
2022-11-04T02:38:37.692Z,11.26
2022-11-04T02:41:33.327Z,11.24
2022-11-04T02:44:14.816Z,11.22
2022-11-04T02:46:48.697Z,11.17
2022-11-04T02:49:25.897Z,11.11
2022-11-04T02:52:03.258Z,11.01
2022-11-04T02:55:00.879Z,10.93
2022-11-04T02:57:31.910Z,10.83
2022-11-04T03:00:07.941Z,10.68
2022-11-04T03:02:46.164Z,10.63
2022-11-04T03:05:16.220Z,10.61
2022-11-04T03:07:46.269Z,10.50
2022-11-04T03:10:42.639Z,10.41
2022-11-04T03:13:24.894Z,10.19
2022-11-04T03:15:58.205Z,10.03
2022-11-04T03:19:03.444Z,10.29
2022-11-04T03:21:37.012Z,10.29
2022-11-04T03:24:04.605Z,10.13
2022-11-04T03:26:46.851Z,9.98
2022-11-04T03:29:27.466Z,10.14
2022-11-04T03:32:19.317Z,10.02
2022-11-04T03:34:45.875Z,10.15
2022-11-04T03:37:12.219Z,10.06
2022-11-04T03:39:39.598Z,10.04
2022-11-04T03:42:22.988Z,9.92
2022-11-04T03:44:54.868Z,9.88
2022-11-04T03:47:24.412Z,9.94
2022-11-04T03:49:56.021Z,9.98
2022-11-04T03:52:22.458Z,9.91
2022-11-04T03:54:48.994Z,9.80
2022-11-04T03:58:00.946Z,9.95
2022-11-04T04:00:33.821Z,9.99
2022-11-04T04:03:13.413Z,10.28
2022-11-04T04:05:51.032Z,10.31
2022-11-04T04:08:39.500Z,10.42
2022-11-04T04:11:50.711Z,10.35
2022-11-04T04:14:36.976Z,10.45
2022-11-04T04:17:07.080Z,10.49
2022-11-04T04:19:34.468Z,10.47
2022-11-04T04:22:06.526Z,10.49
2022-11-04T04:24:55.277Z,10.47
2022-11-04T04:27:32.049Z,10.52
2022-11-04T04:30:12.081Z,10.61
2022-11-04T04:32:43.435Z,10.73
2022-11-04T04:35:29.516Z,10.90
2022-11-04T04:38:20.000Z,10.93
2022-11-04T04:41:12.303Z,10.82
2022-11-04T04:44:00.118Z,10.71
2022-11-04T04:46:29.020Z,10.67
2022-11-04T04:48:55.924Z,10.60
2022-11-04T04:51:22.702Z,10.60
2022-11-04T04:53:49.052Z,10.54
2022-11-04T04:56:15.401Z,10.53
2022-11-04T04:58:41.763Z,10.58
2022-11-04T05:01:09.061Z,10.42
2022-11-04T05:03:35.557Z,10.41
2022-11-04T05:06:01.905Z,10.54
2022-11-04T05:08:28.265Z,10.47
2022-11-04T05:10:54.660Z,10.46
2022-11-04T05:13:26.898Z,10.44
2022-11-04T05:15:53.433Z,10.45
2022-11-04T05:18:20.095Z,10.44
2022-11-04T05:20:46.433Z,10.55
2022-11-04T05:23:13.645Z,10.66
2022-11-04T05:25:41.449Z,10.72
2022-11-04T05:28:08.839Z,10.62
2022-11-04T05:30:35.437Z,10.57
2022-11-04T05:33:04.861Z,10.65
2022-11-04T05:35:32.471Z,10.60
2022-11-04T05:37:58.834Z,10.57
2022-11-04T05:40:25.379Z,10.51
2022-11-04T05:42:51.845Z,10.50
2022-11-04T05:45:18.399Z,10.40
2022-11-04T05:47:44.758Z,10.63
2022-11-04T05:50:11.135Z,10.47
2022-11-04T05:52:37.569Z,10.53
2022-11-04T05:55:04.155Z,10.60
2022-11-04T05:57:30.546Z,10.83
2022-11-04T05:59:56.889Z,10.87
2022-11-04T06:02:23.493Z,10.99
2022-11-04T06:04:49.899Z,11.04
2022-11-04T06:07:16.261Z,10.97
2022-11-04T06:09:42.673Z,10.97
2022-11-04T06:12:12.242Z,10.98
2022-11-04T06:14:38.628Z,11.02
2022-11-04T06:17:05.058Z,11.03
2022-11-04T06:19:31.543Z,10.98
2022-11-04T06:21:57.999Z,11.00
2022-11-04T06:24:24.461Z,10.97
2022-11-04T06:26:50.792Z,10.94
2022-11-04T06:29:17.411Z,11.05
2022-11-04T06:31:43.742Z,11.10
2022-11-04T06:34:10.612Z,11.14
2022-11-04T06:36:36.951Z,11.14
2022-11-04T06:39:05.744Z,11.14
2022-11-04T06:41:32.096Z,11.16
2022-11-04T06:43:58.459Z,11.15
2022-11-04T06:46:34.386Z,11.15
2022-11-04T06:49:00.874Z,11.05
2022-11-04T06:51:27.442Z,11.13
2022-11-04T06:53:54.264Z,11.16
2022-11-04T06:56:20.675Z,11.17
2022-11-04T06:58:51.280Z,11.24
2022-11-04T07:01:22.000Z,11.28
2022-11-04T07:03:50.515Z,11.28
2022-11-04T07:06:17.220Z,11.30
2022-11-04T07:08:43.660Z,11.34
2022-11-04T07:11:10.078Z,11.36
2022-11-04T07:13:36.485Z,11.38
2022-11-04T07:16:07.063Z,11.38
2022-11-04T07:18:33.403Z,11.37
2022-11-04T07:21:00.133Z,11.40
2022-11-04T07:23:26.629Z,11.38
2022-11-04T07:25:54.290Z,11.41
2022-11-04T07:28:21.032Z,11.48
2022-11-04T07:30:47.474Z,11.50
2022-11-04T07:33:13.829Z,11.62
2022-11-04T07:35:40.186Z,11.55
2022-11-04T07:38:06.970Z,11.51
2022-11-04T07:40:34.441Z,11.54
2022-11-04T07:43:01.515Z,11.51
2022-11-04T07:45:27.876Z,11.56
2022-11-04T07:47:54.218Z,11.62
2022-11-04T07:50:20.670Z,11.65
2022-11-04T07:52:47.135Z,11.49
2022-11-04T07:55:18.381Z,11.52
2022-11-04T07:57:48.246Z,11.53
2022-11-04T08:00:16.492Z,11.50
2022-11-04T08:02:46.882Z,11.54
2022-11-04T08:05:16.713Z,11.48
2022-11-04T08:07:43.699Z,11.67
2022-11-04T08:10:10.351Z,11.57
2022-11-04T08:12:38.095Z,11.71
2022-11-04T08:15:05.286Z,11.65
2022-11-04T08:17:31.651Z,11.80
2022-11-04T08:19:58.007Z,12.17
2022-11-04T08:22:27.561Z,12.12
2022-11-04T08:24:56.681Z,12.05
2022-11-04T08:27:23.305Z,12.05
2022-11-04T08:29:49.699Z,12.10
2022-11-04T08:32:16.044Z,12.13
2022-11-04T08:34:42.408Z,12.17
2022-11-04T08:37:08.961Z,12.33
2022-11-04T08:39:35.507Z,12.20
2022-11-04T08:42:01.900Z,12.14
2022-11-04T08:44:28.262Z,12.10
2022-11-04T08:46:54.602Z,12.11
2022-11-04T08:49:21.644Z,12.11
2022-11-04T08:51:54.841Z,12.22
2022-11-04T08:54:21.192Z,12.38
2022-11-04T08:56:47.567Z,12.43
2022-11-04T08:59:15.011Z,12.63
2022-11-04T09:01:42.361Z,12.60
2022-11-04T09:04:11.248Z,12.95
2022-11-04T09:06:40.984Z,12.84
2022-11-04T09:09:09.228Z,13.00
2022-11-04T09:11:39.336Z,13.09
2022-11-04T09:14:06.108Z,13.00
2022-11-04T09:16:34.734Z,12.91
2022-11-04T09:19:01.852Z,12.90
2022-11-04T09:21:28.941Z,12.82
2022-11-04T09:23:55.979Z,12.94
2022-11-04T09:26:23.489Z,12.89
2022-11-04T09:28:54.927Z,12.89
2022-11-04T09:31:21.830Z,12.96
2022-11-04T09:33:48.364Z,13.02
2022-11-04T09:36:14.709Z,13.10
2022-11-04T09:38:42.047Z,13.01
2022-11-04T09:41:12.444Z,12.99
2022-11-04T09:43:57.511Z,13.00
2022-11-04T09:46:24.366Z,13.08
2022-11-04T09:48:54.400Z,13.12
2022-11-04T09:51:48.030Z,13.04
2022-11-04T09:54:20.590Z,12.96
2022-11-04T09:56:51.157Z,13.15
2022-11-04T09:59:27.135Z,13.09
2022-11-04T10:02:20.728Z,13.01
2022-11-04T10:05:09.495Z,12.96
2022-11-04T10:07:57.131Z,13.16
2022-11-04T10:10:53.149Z,13.24
2022-11-04T10:13:28.105Z,13.50
2022-11-04T10:16:12.834Z,13.34
2022-11-04T10:19:06.034Z,13.32
2022-11-04T10:22:10.439Z,13.37
2022-11-04T10:24:56.080Z,13.47
2022-11-04T10:27:30.588Z,13.26
2022-11-04T10:30:05.115Z,13.39
2022-11-04T10:32:51.497Z,13.22
2022-11-04T10:35:39.673Z,13.33
2022-11-04T10:38:38.248Z,13.17
2022-11-04T10:41:18.044Z,13.25
2022-11-04T10:43:44.619Z,13.33
2022-11-04T10:46:24.889Z,13.13
2022-11-04T10:48:59.098Z,12.96
2022-11-04T10:51:25.593Z,13.07
2022-11-04T10:53:58.235Z,12.95
2022-11-04T10:56:34.033Z,13.18
2022-11-04T10:59:20.259Z,13.34
2022-11-04T11:02:02.352Z,13.17
2022-11-04T11:04:31.367Z,13.30
2022-11-04T11:07:00.110Z,13.47
2022-11-04T11:09:29.746Z,13.42
2022-11-04T11:12:49.637Z,13.54
2022-11-04T11:15:40.049Z,13.54
2022-11-04T11:18:06.348Z,13.55
2022-11-04T11:20:35.749Z,13.38
2022-11-04T11:23:04.970Z,13.27
2022-11-04T11:25:36.008Z,13.43
2022-11-04T11:28:09.134Z,13.45
2022-11-04T11:30:42.114Z,13.37
2022-11-04T11:33:18.575Z,13.30
2022-11-04T11:35:58.858Z,13.48
2022-11-04T11:38:27.912Z,13.28
2022-11-04T11:41:24.506Z,13.57
2022-11-04T11:43:53.973Z,13.32
2022-11-04T11:46:30.123Z,13.53
2022-11-04T11:49:01.433Z,13.50
2022-11-04T11:51:32.418Z,13.39
2022-11-04T11:54:33.776Z,13.51
2022-11-04T11:57:14.410Z,13.54
2022-11-04T12:03:00.119Z,13.15
2022-11-04T12:11:59.894Z,13.19
2022-11-04T12:14:36.381Z,13.10
2022-11-04T12:17:06.357Z,12.98
2022-11-04T12:19:40.655Z,13.22
2022-11-04T12:22:16.084Z,13.18
2022-11-04T12:25:08.616Z,12.76
2022-11-04T12:27:47.684Z,12.92
2022-11-04T12:30:23.737Z,13.02
2022-11-04T12:33:26.430Z,13.32
2022-11-04T12:36:03.072Z,13.30
2022-11-04T12:38:45.859Z,13.45
2022-11-04T12:41:34.659Z,13.51
2022-11-04T12:44:07.311Z,13.52
2022-11-04T12:46:40.241Z,13.59
2022-11-04T12:49:24.885Z,13.75
2022-11-04T12:52:18.588Z,13.58
2022-11-04T12:55:22.940Z,13.74
2022-11-04T12:57:52.351Z,13.31
2022-11-04T13:00:24.543Z,13.13
2022-11-04T13:03:00.660Z,13.09
2022-11-04T13:05:51.344Z,13.32
2022-11-04T13:08:31.781Z,13.44
2022-11-04T13:11:23.810Z,13.51
2022-11-04T13:14:01.863Z,13.39
2022-11-04T13:16:31.473Z,13.54
2022-11-04T13:18:58.506Z,13.39
2022-11-04T13:21:30.126Z,13.34
2022-11-04T13:24:11.238Z,13.44
2022-11-04T13:26:37.589Z,13.54
2022-11-04T13:29:08.911Z,13.58
2022-11-04T13:31:54.222Z,13.55
2022-11-04T13:34:33.790Z,13.47
2022-11-04T13:37:36.198Z,13.37
2022-11-04T13:40:25.752Z,13.42
2022-11-04T13:43:38.405Z,13.24
2022-11-04T13:46:10.741Z,13.17
2022-11-04T13:48:48.085Z,13.24
2022-11-04T13:51:14.454Z,13.26
2022-11-04T13:53:51.196Z,13.14
2022-11-04T13:56:37.063Z,13.28
2022-11-04T13:59:18.431Z,13.37
2022-11-04T14:01:45.422Z,13.42
2022-11-04T14:04:30.101Z,13.36
2022-11-04T14:06:58.271Z,13.35
2022-11-04T14:09:49.189Z,13.66
2022-11-04T14:12:18.191Z,13.66
2022-11-04T14:14:47.705Z,13.80
2022-11-04T14:17:32.591Z,14.00
2022-11-04T14:20:06.469Z,13.85
2022-11-04T14:22:57.745Z,13.78
2022-11-04T14:25:41.513Z,13.43
2022-11-04T14:28:10.743Z,13.71
2022-11-04T14:30:44.549Z,13.74
2022-11-04T14:33:40.667Z,13.79
2022-11-04T14:36:19.103Z,13.88
2022-11-04T14:39:12.404Z,13.93
2022-11-04T14:42:12.394Z,13.66
2022-11-04T14:44:49.587Z,13.66
2022-11-04T14:47:29.959Z,14.02
2022-11-04T14:49:59.342Z,13.87
2022-11-04T14:52:26.943Z,13.85
2022-11-04T14:55:11.342Z,13.84
2022-11-04T14:57:40.403Z,13.84
2022-11-04T15:00:25.517Z,13.94
2022-11-04T15:03:12.592Z,14.13
2022-11-04T15:05:53.681Z,13.95
2022-11-04T15:08:33.753Z,13.95
2022-11-04T15:11:17.372Z,13.75
2022-11-04T15:13:43.980Z,13.58
2022-11-04T15:16:15.915Z,13.59
2022-11-04T15:18:42.556Z,13.58
2022-11-04T15:21:10.352Z,13.69
2022-11-04T15:23:42.178Z,13.57
2022-11-04T15:26:23.805Z,13.53
2022-11-04T15:28:54.485Z,13.56
2022-11-04T15:31:23.895Z,13.48
2022-11-04T15:33:56.589Z,13.39
2022-11-04T15:36:32.948Z,13.27
2022-11-04T15:39:14.242Z,13.14
2022-11-04T15:42:01.094Z,13.05
2022-11-04T15:44:32.770Z,13.04
2022-11-04T15:47:23.550Z,12.97
2022-11-04T15:49:52.424Z,12.94
2022-11-04T15:52:27.622Z,12.83
2022-11-04T15:54:59.211Z,12.80
2022-11-04T15:57:34.762Z,12.82
2022-11-04T16:00:08.713Z,12.79
2022-11-04T16:02:45.015Z,12.83
2022-11-04T16:05:11.311Z,12.81
2022-11-04T16:07:40.438Z,12.73
2022-11-04T16:10:31.601Z,12.69
2022-11-04T16:13:02.114Z,12.70
2022-11-04T16:15:34.357Z,12.84
2022-11-04T16:18:02.576Z,13.13
2022-11-04T16:20:30.964Z,13.25
2022-11-04T16:23:00.239Z,12.99
2022-11-04T16:25:32.474Z,13.37
2022-11-04T16:28:00.556Z,13.32
2022-11-04T16:30:27.600Z,13.26
2022-11-04T16:32:55.850Z,13.17
2022-11-04T16:35:27.640Z,13.33
2022-11-04T16:37:55.962Z,13.07
2022-11-04T16:40:24.128Z,12.86
2022-11-04T16:42:51.059Z,12.72
2022-11-04T16:45:26.041Z,13.25
2022-11-04T16:47:53.194Z,12.85
2022-11-04T16:50:19.571Z,12.65
2022-11-04T16:52:46.316Z,12.54
2022-11-04T16:55:13.770Z,12.44
2022-11-04T16:57:40.418Z,12.40
2022-11-04T17:00:07.821Z,12.42
2022-11-04T17:02:41.077Z,12.35
2022-11-04T17:05:08.663Z,12.41
2022-11-04T17:07:52.024Z,12.47
2022-11-04T17:10:27.999Z,12.40
2022-11-04T17:12:54.572Z,12.34
2022-11-04T17:15:21.152Z,12.25
2022-11-04T17:17:47.578Z,12.20
2022-11-04T17:20:17.406Z,12.21
2022-11-04T17:22:44.282Z,12.28
2022-11-04T17:25:18.143Z,12.27
2022-11-04T17:27:44.712Z,12.01
2022-11-04T17:30:14.972Z,12.10
2022-11-04T17:32:42.094Z,12.09
2022-11-04T17:35:09.391Z,12.18
2022-11-04T17:37:35.813Z,12.21
2022-11-04T17:40:02.145Z,12.20
2022-11-04T17:42:47.077Z,12.20
2022-11-04T17:45:13.415Z,12.17
2022-11-04T17:47:39.841Z,12.28
2022-11-04T17:50:07.970Z,12.32
2022-11-04T17:52:35.428Z,12.36
2022-11-04T17:55:02.078Z,12.23
2022-11-04T17:57:28.496Z,12.30
2022-11-04T17:59:54.854Z,12.26
2022-11-04T18:02:21.307Z,12.33
2022-11-04T18:04:47.770Z,12.25
2022-11-04T18:07:14.201Z,12.20
2022-11-04T18:09:40.574Z,12.13
2022-11-04T18:12:25.383Z,12.06
2022-11-04T18:14:51.765Z,11.60
2022-11-04T18:17:18.161Z,11.73
2022-11-04T18:19:44.544Z,11.80
2022-11-04T18:22:10.942Z,11.88
2022-11-04T18:24:37.289Z,11.91
2022-11-04T18:27:03.759Z,11.82
2022-11-04T18:29:30.109Z,11.86
2022-11-04T18:31:56.525Z,11.90
2022-11-04T18:34:22.855Z,11.85
2022-11-04T18:36:49.562Z,11.81
2022-11-04T18:39:18.639Z,11.71
2022-11-04T18:41:45.784Z,11.84
2022-11-04T18:44:17.136Z,11.79
2022-11-04T18:46:44.295Z,11.88
2022-11-04T18:49:11.685Z,11.89
2022-11-04T18:51:38.282Z,11.83
2022-11-04T18:54:06.524Z,11.75
2022-11-04T18:56:33.637Z,11.87
2022-11-04T18:59:01.234Z,11.80
2022-11-04T19:01:30.495Z,11.78
2022-11-04T19:03:59.795Z,11.89
2022-11-04T19:06:29.833Z,12.01
2022-11-04T19:09:13.315Z,11.95
2022-11-04T19:11:45.692Z,12.07
2022-11-04T19:14:14.935Z,12.00
2022-11-04T19:16:42.347Z,12.16
2022-11-04T19:19:11.903Z,12.13
2022-11-04T19:21:38.391Z,12.11
2022-11-04T19:24:06.864Z,12.12
2022-11-04T19:26:35.568Z,12.07
2022-11-04T19:29:05.276Z,12.03
2022-11-04T19:31:32.264Z,11.94
2022-11-04T19:34:00.976Z,12.08
2022-11-04T19:36:27.387Z,11.99
2022-11-04T19:38:55.284Z,12.03
2022-11-04T19:41:42.268Z,12.11
2022-11-04T19:44:12.454Z,11.91
2022-11-04T19:46:39.405Z,11.98
2022-11-04T19:49:06.706Z,12.01
2022-11-04T19:51:34.312Z,12.23
2022-11-04T19:54:02.060Z,12.20
2022-11-04T19:56:29.046Z,12.03
2022-11-04T19:58:55.420Z,11.96
2022-11-04T20:01:21.887Z,12.00
2022-11-04T20:03:48.482Z,11.95
2022-11-04T20:06:15.970Z,12.02
2022-11-04T20:08:44.089Z,11.90
2022-11-04T20:11:11.442Z,12.11
2022-11-04T20:13:44.316Z,12.23
2022-11-04T20:16:24.389Z,12.00
2022-11-04T20:18:57.428Z,11.93
2022-11-04T20:21:26.948Z,11.84
2022-11-04T20:23:58.316Z,11.81
2022-11-04T20:26:26.195Z,11.79
2022-11-04T20:28:56.841Z,11.78
2022-11-04T20:31:25.300Z,11.79
2022-11-04T20:33:52.959Z,11.74
2022-11-04T20:36:22.932Z,11.76
2022-11-04T20:38:49.396Z,11.74
2022-11-04T20:41:19.723Z,11.67
2022-11-04T20:43:47.373Z,11.62
2022-11-04T20:46:24.486Z,11.58
2022-11-04T20:48:51.593Z,11.62
2022-11-04T20:51:24.085Z,11.63
2022-11-04T20:53:55.947Z,11.64
2022-11-04T20:56:24.557Z,11.66
2022-11-04T20:58:55.916Z,11.69
2022-11-04T21:01:29.646Z,11.67
2022-11-04T21:04:08.388Z,11.60
2022-11-04T21:06:37.648Z,11.69
2022-11-04T21:09:05.129Z,11.60
2022-11-04T21:11:32.473Z,11.63
2022-11-04T21:13:59.383Z,11.64
2022-11-04T21:16:26.325Z,11.68
2022-11-04T21:18:52.764Z,11.64
2022-11-04T21:21:19.552Z,11.66
2022-11-04T21:23:46.673Z,11.69
2022-11-04T21:26:20.884Z,11.57
2022-11-04T21:28:49.439Z,11.55
2022-11-04T21:31:15.758Z,11.56
2022-11-04T21:33:42.072Z,11.51
2022-11-04T21:36:11.205Z,11.57
2022-11-04T21:38:37.635Z,11.71
2022-11-04T21:41:10.239Z,11.60
2022-11-04T21:43:36.617Z,11.71
2022-11-04T21:46:08.517Z,11.62
2022-11-04T21:48:36.058Z,11.62
2022-11-04T21:51:09.072Z,11.64
2022-11-04T21:53:36.203Z,11.58
2022-11-04T21:56:08.894Z,11.55
2022-11-04T21:58:36.438Z,11.59
2022-11-04T22:01:04.981Z,11.51
2022-11-04T22:03:31.738Z,11.47
2022-11-04T22:06:02.882Z,11.52
2022-11-04T22:08:34.499Z,11.50
2022-11-04T22:11:19.408Z,11.69
2022-11-04T22:13:46.235Z,11.60
2022-11-04T22:16:15.909Z,11.55
2022-11-04T22:18:42.922Z,11.53
2022-11-04T22:21:15.127Z,11.55
2022-11-04T22:23:41.943Z,11.58
2022-11-04T22:26:12.525Z,11.53
2022-11-04T22:28:38.926Z,11.57
2022-11-04T22:31:18.239Z,11.62
2022-11-04T22:33:48.202Z,11.55
2022-11-04T22:36:14.743Z,11.51
2022-11-04T22:38:42.641Z,11.74
2022-11-04T22:41:12.512Z,11.64
2022-11-04T22:43:39.103Z,11.65
2022-11-04T22:46:16.690Z,11.74
2022-11-04T22:48:43.281Z,11.68
2022-11-04T22:51:10.247Z,11.58
2022-11-04T22:53:37.713Z,11.58
2022-11-04T22:56:06.444Z,11.57
2022-11-04T22:58:32.977Z,11.56
2022-11-04T23:01:08.497Z,11.51
2022-11-04T23:03:35.024Z,11.52
2022-11-04T23:06:03.389Z,11.40
2022-11-04T23:08:32.204Z,11.49
2022-11-04T23:11:22.103Z,11.43
2022-11-04T23:14:14.298Z,11.44
2022-11-04T23:17:07.837Z,11.40
2022-11-04T23:19:34.499Z,11.51
2022-11-04T23:22:19.228Z,11.89
2022-11-04T23:25:04.009Z,11.45
2022-11-04T23:27:48.875Z,11.47
2022-11-04T23:30:21.079Z,11.43
2022-11-04T23:32:52.719Z,11.42
2022-11-04T23:35:39.902Z,11.51
2022-11-04T23:38:06.267Z,11.46
2022-11-04T23:40:32.782Z,11.42
2022-11-04T23:42:59.298Z,11.34
2022-11-04T23:45:44.103Z,11.30
2022-11-04T23:48:29.914Z,11.26
2022-11-04T23:51:16.176Z,11.25
2022-11-04T23:54:02.055Z,11.22
2022-11-04T23:56:47.775Z,11.23
2022-11-04T23:59:35.023Z,11.19
